sensor_id;sensor_type;location;lat;lon;timestamp;P1;durP1;ratioP1;P2;durP2;ratioP2
3819;SDS011;1925;51.356;9.530;2023-02-28T00:01:22;1.50;;;1.10;;
3819;SDS011;1925;51.356;9.530;2023-02-28T00:03:48;1.42;;;0.93;;
3819;SDS011;1925;51.356;9.530;2023-02-28T00:06:14;3.08;;;1.33;;
3819;SDS011;1925;51.356;9.530;2023-02-28T00:08:40;3.43;;;1.10;;
3819;SDS011;1925;51.356;9.530;2023-02-28T00:11:08;2.28;;;1.10;;
3819;SDS011;1925;51.356;9.530;2023-02-28T00:13:34;1.27;;;0.95;;
3819;SDS011;1925;51.356;9.530;2023-02-28T00:16:05;1.55;;;0.98;;
3819;SDS011;1925;51.356;9.530;2023-02-28T00:18:31;6.30;;;1.17;;
3819;SDS011;1925;51.356;9.530;2023-02-28T00:20:57;1.60;;;1.00;;
3819;SDS011;1925;51.356;9.530;2023-02-28T00:23:23;1.83;;;0.75;;
3819;SDS011;1925;51.356;9.530;2023-02-28T00:25:49;1.67;;;1.00;;
3819;SDS011;1925;51.356;9.530;2023-02-28T00:28:16;1.42;;;0.85;;
3819;SDS011;1925;51.356;9.530;2023-02-28T00:30:41;1.33;;;0.73;;
3819;SDS011;1925;51.356;9.530;2023-02-28T00:33:07;3.13;;;0.97;;
3819;SDS011;1925;51.356;9.530;2023-02-28T00:35:33;3.03;;;1.05;;
3819;SDS011;1925;51.356;9.530;2023-02-28T00:38:00;1.55;;;1.20;;
3819;SDS011;1925;51.356;9.530;2023-02-28T00:40:26;1.30;;;1.07;;
3819;SDS011;1925;51.356;9.530;2023-02-28T00:42:52;1.70;;;0.90;;
3819;SDS011;1925;51.356;9.530;2023-02-28T00:45:17;2.70;;;1.10;;
3819;SDS011;1925;51.356;9.530;2023-02-28T00:47:44;1.90;;;0.82;;
3819;SDS011;1925;51.356;9.530;2023-02-28T00:50:11;0.90;;;0.65;;
3819;SDS011;1925;51.356;9.530;2023-02-28T00:52:37;2.13;;;1.20;;
3819;SDS011;1925;51.356;9.530;2023-02-28T00:55:04;2.33;;;1.00;;
3819;SDS011;1925;51.356;9.530;2023-02-28T00:57:30;1.10;;;0.80;;
3819;SDS011;1925;51.356;9.530;2023-02-28T00:59:56;1.33;;;0.93;;
3819;SDS011;1925;51.356;9.530;2023-02-28T01:02:22;1.75;;;1.08;;
3819;SDS011;1925;51.356;9.530;2023-02-28T01:04:48;1.85;;;0.90;;
3819;SDS011;1925;51.356;9.530;2023-02-28T01:07:14;1.77;;;1.10;;
3819;SDS011;1925;51.356;9.530;2023-02-28T01:09:40;2.17;;;1.08;;
3819;SDS011;1925;51.356;9.530;2023-02-28T01:12:07;1.42;;;0.70;;
3819;SDS011;1925;51.356;9.530;2023-02-28T01:14:33;1.65;;;1.10;;
3819;SDS011;1925;51.356;9.530;2023-02-28T01:16:59;2.08;;;1.00;;
3819;SDS011;1925;51.356;9.530;2023-02-28T01:19:25;5.32;;;1.15;;
3819;SDS011;1925;51.356;9.530;2023-02-28T01:21:51;2.70;;;1.03;;
3819;SDS011;1925;51.356;9.530;2023-02-28T01:24:17;1.37;;;1.00;;
3819;SDS011;1925;51.356;9.530;2023-02-28T01:26:43;1.50;;;0.93;;
3819;SDS011;1925;51.356;9.530;2023-02-28T01:29:09;2.80;;;0.93;;
3819;SDS011;1925;51.356;9.530;2023-02-28T01:31:35;2.50;;;0.90;;
3819;SDS011;1925;51.356;9.530;2023-02-28T01:34:02;1.40;;;1.05;;
3819;SDS011;1925;51.356;9.530;2023-02-28T01:36:28;2.13;;;1.42;;
3819;SDS011;1925;51.356;9.530;2023-02-28T01:38:54;2.57;;;1.37;;
3819;SDS011;1925;51.356;9.530;2023-02-28T01:41:24;1.60;;;1.20;;
3819;SDS011;1925;51.356;9.530;2023-02-28T01:46:19;2.47;;;0.80;;
3819;SDS011;1925;51.356;9.530;2023-02-28T01:48:56;1.57;;;1.10;;
3819;SDS011;1925;51.356;9.530;2023-02-28T01:51:33;1.45;;;1.00;;
3819;SDS011;1925;51.356;9.530;2023-02-28T01:54:00;2.08;;;0.80;;
3819;SDS011;1925;51.356;9.530;2023-02-28T01:56:27;1.33;;;0.75;;
3819;SDS011;1925;51.356;9.530;2023-02-28T01:58:54;3.08;;;1.17;;
3819;SDS011;1925;51.356;9.530;2023-02-28T02:01:21;1.33;;;1.05;;
3819;SDS011;1925;51.356;9.530;2023-02-28T02:03:51;2.90;;;1.30;;
3819;SDS011;1925;51.356;9.530;2023-02-28T02:06:22;3.67;;;1.10;;
3819;SDS011;1925;51.356;9.530;2023-02-28T02:08:48;1.27;;;0.80;;
3819;SDS011;1925;51.356;9.530;2023-02-28T02:11:14;1.73;;;1.27;;
3819;SDS011;1925;51.356;9.530;2023-02-28T02:14:31;1.73;;;0.95;;
3819;SDS011;1925;51.356;9.530;2023-02-28T02:21:47;1.30;;;0.90;;
3819;SDS011;1925;51.356;9.530;2023-02-28T02:26:55;1.92;;;1.40;;
3819;SDS011;1925;51.356;9.530;2023-02-28T02:34:42;2.00;;;1.80;;
3819;SDS011;1925;51.356;9.530;2023-02-28T02:39:40;1.98;;;1.02;;
3819;SDS011;1925;51.356;9.530;2023-02-28T02:42:22;2.65;;;1.45;;
3819;SDS011;1925;51.356;9.530;2023-02-28T02:44:51;2.65;;;1.38;;
3819;SDS011;1925;51.356;9.530;2023-02-28T02:47:21;2.90;;;1.05;;
3819;SDS011;1925;51.356;9.530;2023-02-28T02:49:50;1.88;;;1.15;;
3819;SDS011;1925;51.356;9.530;2023-02-28T02:52:20;1.20;;;0.90;;
3819;SDS011;1925;51.356;9.530;2023-02-28T02:54:48;1.70;;;1.10;;
3819;SDS011;1925;51.356;9.530;2023-02-28T02:57:20;1.70;;;0.90;;
3819;SDS011;1925;51.356;9.530;2023-02-28T02:59:47;1.27;;;0.90;;
3819;SDS011;1925;51.356;9.530;2023-02-28T03:02:14;1.80;;;1.23;;
3819;SDS011;1925;51.356;9.530;2023-02-28T03:04:51;0.85;;;0.85;;
3819;SDS011;1925;51.356;9.530;2023-02-28T03:07:18;2.50;;;1.00;;
3819;SDS011;1925;51.356;9.530;2023-02-28T03:09:53;2.08;;;1.02;;
3819;SDS011;1925;51.356;9.530;2023-02-28T03:12:20;0.90;;;0.70;;
3819;SDS011;1925;51.356;9.530;2023-02-28T03:14:56;2.35;;;0.88;;
3819;SDS011;1925;51.356;9.530;2023-02-28T03:20:15;1.33;;;0.85;;
3819;SDS011;1925;51.356;9.530;2023-02-28T03:26:02;1.10;;;0.80;;
3819;SDS011;1925;51.356;9.530;2023-02-28T03:28:31;1.63;;;0.90;;
3819;SDS011;1925;51.356;9.530;2023-02-28T03:30:59;1.45;;;1.00;;
3819;SDS011;1925;51.356;9.530;2023-02-28T03:33:28;1.90;;;1.38;;
3819;SDS011;1925;51.356;9.530;2023-02-28T03:35:56;1.60;;;0.85;;
3819;SDS011;1925;51.356;9.530;2023-02-28T03:38:28;1.42;;;0.93;;
3819;SDS011;1925;51.356;9.530;2023-02-28T03:40:58;1.15;;;0.90;;
3819;SDS011;1925;51.356;9.530;2023-02-28T03:43:28;1.20;;;0.90;;
3819;SDS011;1925;51.356;9.530;2023-02-28T03:45:55;3.13;;;1.17;;
3819;SDS011;1925;51.356;9.530;2023-02-28T03:48:23;1.60;;;0.88;;
3819;SDS011;1925;51.356;9.530;2023-02-28T03:50:50;2.65;;;1.13;;
3819;SDS011;1925;51.356;9.530;2023-02-28T03:55:54;2.72;;;1.48;;
3819;SDS011;1925;51.356;9.530;2023-02-28T03:58:25;1.17;;;0.75;;
3819;SDS011;1925;51.356;9.530;2023-02-28T04:00:55;2.58;;;1.08;;
3819;SDS011;1925;51.356;9.530;2023-02-28T04:03:23;4.32;;;1.25;;
3819;SDS011;1925;51.356;9.530;2023-02-28T04:05:53;1.10;;;1.00;;
3819;SDS011;1925;51.356;9.530;2023-02-28T04:08:19;1.20;;;1.10;;
3819;SDS011;1925;51.356;9.530;2023-02-28T04:10:48;1.40;;;0.82;;
3819;SDS011;1925;51.356;9.530;2023-02-28T04:13:16;1.20;;;1.10;;
3819;SDS011;1925;51.356;9.530;2023-02-28T04:15:42;1.13;;;1.00;;
3819;SDS011;1925;51.356;9.530;2023-02-28T04:18:08;2.03;;;1.30;;
3819;SDS011;1925;51.356;9.530;2023-02-28T04:20:34;0.83;;;0.70;;
3819;SDS011;1925;51.356;9.530;2023-02-28T04:23:00;1.17;;;0.90;;
3819;SDS011;1925;51.356;9.530;2023-02-28T04:25:26;1.20;;;0.90;;
3819;SDS011;1925;51.356;9.530;2023-02-28T04:27:52;1.80;;;0.97;;
3819;SDS011;1925;51.356;9.530;2023-02-28T04:30:18;1.20;;;1.10;;
3819;SDS011;1925;51.356;9.530;2023-02-28T04:32:44;1.90;;;1.35;;
3819;SDS011;1925;51.356;9.530;2023-02-28T04:35:10;1.40;;;0.90;;
3819;SDS011;1925;51.356;9.530;2023-02-28T04:37:36;1.10;;;0.90;;
3819;SDS011;1925;51.356;9.530;2023-02-28T04:40:02;2.00;;;1.10;;
3819;SDS011;1925;51.356;9.530;2023-02-28T04:42:28;1.23;;;1.10;;
3819;SDS011;1925;51.356;9.530;2023-02-28T04:45:00;1.23;;;1.05;;
3819;SDS011;1925;51.356;9.530;2023-02-28T04:47:26;1.38;;;0.90;;
3819;SDS011;1925;51.356;9.530;2023-02-28T04:49:52;3.10;;;1.00;;
3819;SDS011;1925;51.356;9.530;2023-02-28T04:52:18;1.30;;;1.00;;
3819;SDS011;1925;51.356;9.530;2023-02-28T04:54:44;2.10;;;1.17;;
3819;SDS011;1925;51.356;9.530;2023-02-28T04:57:10;1.73;;;1.03;;
3819;SDS011;1925;51.356;9.530;2023-02-28T04:59:36;1.90;;;1.10;;
3819;SDS011;1925;51.356;9.530;2023-02-28T05:02:02;2.13;;;1.00;;
3819;SDS011;1925;51.356;9.530;2023-02-28T05:04:31;1.45;;;1.10;;
3819;SDS011;1925;51.356;9.530;2023-02-28T05:06:59;1.85;;;1.05;;
3819;SDS011;1925;51.356;9.530;2023-02-28T05:09:24;1.50;;;0.97;;
3819;SDS011;1925;51.356;9.530;2023-02-28T05:11:50;4.60;;;1.30;;
3819;SDS011;1925;51.356;9.530;2023-02-28T05:14:16;2.70;;;1.05;;
3819;SDS011;1925;51.356;9.530;2023-02-28T05:16:42;1.77;;;1.07;;
3819;SDS011;1925;51.356;9.530;2023-02-28T05:19:08;2.20;;;1.20;;
3819;SDS011;1925;51.356;9.530;2023-02-28T05:21:35;2.63;;;1.20;;
3819;SDS011;1925;51.356;9.530;2023-02-28T05:24:05;2.13;;;0.90;;
3819;SDS011;1925;51.356;9.530;2023-02-28T05:26:36;1.30;;;0.82;;
3819;SDS011;1925;51.356;9.530;2023-02-28T05:29:02;1.30;;;0.95;;
3819;SDS011;1925;51.356;9.530;2023-02-28T05:31:28;3.07;;;1.10;;
3819;SDS011;1925;51.356;9.530;2023-02-28T05:33:54;1.10;;;1.00;;
3819;SDS011;1925;51.356;9.530;2023-02-28T05:36:20;2.10;;;1.13;;
3819;SDS011;1925;51.356;9.530;2023-02-28T05:38:47;2.50;;;1.40;;
3819;SDS011;1925;51.356;9.530;2023-02-28T05:41:13;1.00;;;0.85;;
3819;SDS011;1925;51.356;9.530;2023-02-28T05:43:39;3.28;;;1.38;;
3819;SDS011;1925;51.356;9.530;2023-02-28T05:46:06;2.88;;;1.42;;
3819;SDS011;1925;51.356;9.530;2023-02-28T05:48:36;4.72;;;3.05;;
3819;SDS011;1925;51.356;9.530;2023-02-28T05:51:02;2.10;;;1.48;;
3819;SDS011;1925;51.356;9.530;2023-02-28T05:53:28;5.82;;;1.30;;
3819;SDS011;1925;51.356;9.530;2023-02-28T05:55:54;1.87;;;1.50;;
3819;SDS011;1925;51.356;9.530;2023-02-28T05:58:20;1.77;;;1.50;;
3819;SDS011;1925;51.356;9.530;2023-02-28T06:00:46;2.20;;;2.03;;
3819;SDS011;1925;51.356;9.530;2023-02-28T06:03:12;2.58;;;1.80;;
3819;SDS011;1925;51.356;9.530;2023-02-28T06:05:38;2.73;;;1.47;;
3819;SDS011;1925;51.356;9.530;2023-02-28T06:08:04;1.30;;;1.07;;
3819;SDS011;1925;51.356;9.530;2023-02-28T06:10:32;2.03;;;1.50;;
3819;SDS011;1925;51.356;9.530;2023-02-28T06:13:01;1.50;;;1.40;;
3819;SDS011;1925;51.356;9.530;2023-02-28T06:15:27;1.38;;;1.13;;
3819;SDS011;1925;51.356;9.530;2023-02-28T06:17:53;1.65;;;1.10;;
3819;SDS011;1925;51.356;9.530;2023-02-28T06:20:21;1.90;;;1.20;;
3819;SDS011;1925;51.356;9.530;2023-02-28T06:22:47;1.95;;;1.67;;
3819;SDS011;1925;51.356;9.530;2023-02-28T06:25:15;1.65;;;1.38;;
3819;SDS011;1925;51.356;9.530;2023-02-28T06:27:41;2.78;;;1.42;;
3819;SDS011;1925;51.356;9.530;2023-02-28T06:30:08;4.60;;;1.52;;
3819;SDS011;1925;51.356;9.530;2023-02-28T06:32:34;3.63;;;1.40;;
3819;SDS011;1925;51.356;9.530;2023-02-28T06:35:00;2.28;;;1.42;;
3819;SDS011;1925;51.356;9.530;2023-02-28T06:37:26;3.00;;;1.77;;
3819;SDS011;1925;51.356;9.530;2023-02-28T06:39:53;3.77;;;1.20;;
3819;SDS011;1925;51.356;9.530;2023-02-28T06:42:21;3.63;;;1.52;;
3819;SDS011;1925;51.356;9.530;2023-02-28T06:44:49;2.67;;;1.40;;
3819;SDS011;1925;51.356;9.530;2023-02-28T06:47:15;3.43;;;2.03;;
3819;SDS011;1925;51.356;9.530;2023-02-28T06:49:41;2.47;;;1.87;;
3819;SDS011;1925;51.356;9.530;2023-02-28T06:52:07;1.45;;;1.35;;
3819;SDS011;1925;51.356;9.530;2023-02-28T06:54:35;2.67;;;1.27;;
3819;SDS011;1925;51.356;9.530;2023-02-28T06:57:02;1.80;;;1.55;;
3819;SDS011;1925;51.356;9.530;2023-02-28T06:59:28;1.90;;;1.55;;
3819;SDS011;1925;51.356;9.530;2023-02-28T07:01:54;4.20;;;1.47;;
3819;SDS011;1925;51.356;9.530;2023-02-28T07:04:20;3.17;;;1.50;;
3819;SDS011;1925;51.356;9.530;2023-02-28T07:06:46;2.25;;;1.42;;
3819;SDS011;1925;51.356;9.530;2023-02-28T07:09:12;2.92;;;1.80;;
3819;SDS011;1925;51.356;9.530;2023-02-28T07:11:39;2.63;;;1.20;;
3819;SDS011;1925;51.356;9.530;2023-02-28T07:14:05;1.85;;;1.00;;
3819;SDS011;1925;51.356;9.530;2023-02-28T07:16:32;1.70;;;1.20;;
3819;SDS011;1925;51.356;9.530;2023-02-28T07:18:58;1.73;;;1.23;;
3819;SDS011;1925;51.356;9.530;2023-02-28T07:21:24;2.53;;;1.40;;
3819;SDS011;1925;51.356;9.530;2023-02-28T07:23:50;2.13;;;1.50;;
3819;SDS011;1925;51.356;9.530;2023-02-28T07:26:18;5.38;;;1.52;;
3819;SDS011;1925;51.356;9.530;2023-02-28T07:28:45;2.28;;;1.58;;
3819;SDS011;1925;51.356;9.530;2023-02-28T07:31:12;1.77;;;1.08;;
3819;SDS011;1925;51.356;9.530;2023-02-28T07:33:38;2.20;;;1.80;;
3819;SDS011;1925;51.356;9.530;2023-02-28T07:36:09;1.83;;;1.53;;
3819;SDS011;1925;51.356;9.530;2023-02-28T07:38:40;2.25;;;1.20;;
3819;SDS011;1925;51.356;9.530;2023-02-28T07:41:06;2.00;;;1.33;;
3819;SDS011;1925;51.356;9.530;2023-02-28T07:43:33;2.53;;;1.75;;
3819;SDS011;1925;51.356;9.530;2023-02-28T07:46:17;3.10;;;1.27;;
3819;SDS011;1925;51.356;9.530;2023-02-28T07:48:45;1.73;;;1.10;;
3819;SDS011;1925;51.356;9.530;2023-02-28T07:51:11;2.67;;;1.60;;
3819;SDS011;1925;51.356;9.530;2023-02-28T07:53:37;1.90;;;1.33;;
3819;SDS011;1925;51.356;9.530;2023-02-28T07:56:03;3.47;;;1.80;;
3819;SDS011;1925;51.356;9.530;2023-02-28T07:58:29;5.03;;;1.90;;
3819;SDS011;1925;51.356;9.530;2023-02-28T08:00:56;2.13;;;1.27;;
3819;SDS011;1925;51.356;9.530;2023-02-28T08:03:22;3.08;;;1.55;;
3819;SDS011;1925;51.356;9.530;2023-02-28T08:05:49;1.60;;;1.50;;
3819;SDS011;1925;51.356;9.530;2023-02-28T08:08:15;3.20;;;1.65;;
3819;SDS011;1925;51.356;9.530;2023-02-28T08:10:42;2.53;;;1.55;;
3819;SDS011;1925;51.356;9.530;2023-02-28T08:13:08;1.98;;;1.75;;
3819;SDS011;1925;51.356;9.530;2023-02-28T08:15:34;2.67;;;1.70;;
3819;SDS011;1925;51.356;9.530;2023-02-28T08:18:01;2.08;;;1.88;;
3819;SDS011;1925;51.356;9.530;2023-02-28T08:20:27;1.90;;;1.52;;
3819;SDS011;1925;51.356;9.530;2023-02-28T08:22:53;1.53;;;1.43;;
3819;SDS011;1925;51.356;9.530;2023-02-28T08:25:19;2.20;;;1.23;;
3819;SDS011;1925;51.356;9.530;2023-02-28T08:27:45;2.30;;;1.92;;
3819;SDS011;1925;51.356;9.530;2023-02-28T08:30:11;2.10;;;1.33;;
3819;SDS011;1925;51.356;9.530;2023-02-28T08:32:38;3.22;;;1.60;;
3819;SDS011;1925;51.356;9.530;2023-02-28T08:35:04;1.90;;;1.70;;
3819;SDS011;1925;51.356;9.530;2023-02-28T08:37:30;2.22;;;1.60;;
3819;SDS011;1925;51.356;9.530;2023-02-28T08:39:56;2.27;;;1.73;;
3819;SDS011;1925;51.356;9.530;2023-02-28T08:42:22;2.10;;;1.40;;
3819;SDS011;1925;51.356;9.530;2023-02-28T08:44:48;2.50;;;1.50;;
3819;SDS011;1925;51.356;9.530;2023-02-28T08:47:14;2.00;;;1.53;;
3819;SDS011;1925;51.356;9.530;2023-02-28T08:49:40;3.63;;;1.90;;
3819;SDS011;1925;51.356;9.530;2023-02-28T08:52:06;1.80;;;1.53;;
3819;SDS011;1925;51.356;9.530;2023-02-28T08:54:32;2.53;;;2.00;;
3819;SDS011;1925;51.356;9.530;2023-02-28T08:56:59;2.20;;;1.63;;
3819;SDS011;1925;51.356;9.530;2023-02-28T08:59:25;3.03;;;2.40;;
3819;SDS011;1925;51.356;9.530;2023-02-28T09:01:51;1.47;;;1.37;;
3819;SDS011;1925;51.356;9.530;2023-02-28T09:04:17;2.53;;;2.03;;
3819;SDS011;1925;51.356;9.530;2023-02-28T09:06:43;2.00;;;1.73;;
3819;SDS011;1925;51.356;9.530;2023-02-28T09:09:09;1.53;;;1.43;;
3819;SDS011;1925;51.356;9.530;2023-02-28T09:11:35;2.17;;;1.97;;
3819;SDS011;1925;51.356;9.530;2023-02-28T09:14:02;1.80;;;1.70;;
3819;SDS011;1925;51.356;9.530;2023-02-28T09:16:28;3.22;;;1.95;;
3819;SDS011;1925;51.356;9.530;2023-02-28T09:18:54;3.47;;;1.60;;
3819;SDS011;1925;51.356;9.530;2023-02-28T09:21:20;1.77;;;1.63;;
3819;SDS011;1925;51.356;9.530;2023-02-28T09:23:47;3.40;;;1.87;;
3819;SDS011;1925;51.356;9.530;2023-02-28T09:26:14;2.45;;;1.90;;
3819;SDS011;1925;51.356;9.530;2023-02-28T09:28:40;2.72;;;1.58;;
3819;SDS011;1925;51.356;9.530;2023-02-28T09:31:10;2.97;;;1.40;;
3819;SDS011;1925;51.356;9.530;2023-02-28T09:33:37;3.47;;;1.75;;
3819;SDS011;1925;51.356;9.530;2023-02-28T09:36:03;2.20;;;1.80;;
3819;SDS011;1925;51.356;9.530;2023-02-28T09:38:29;2.45;;;1.70;;
3819;SDS011;1925;51.356;9.530;2023-02-28T09:40:56;3.10;;;2.17;;
3819;SDS011;1925;51.356;9.530;2023-02-28T09:43:24;2.20;;;2.00;;
3819;SDS011;1925;51.356;9.530;2023-02-28T09:46:02;2.45;;;1.98;;
3819;SDS011;1925;51.356;9.530;2023-02-28T09:48:32;4.05;;;1.92;;
3819;SDS011;1925;51.356;9.530;2023-02-28T09:51:04;1.90;;;1.70;;
3819;SDS011;1925;51.356;9.530;2023-02-28T09:53:32;2.35;;;2.00;;
3819;SDS011;1925;51.356;9.530;2023-02-28T09:56:01;2.67;;;2.15;;
3819;SDS011;1925;51.356;9.530;2023-02-28T09:58:31;1.77;;;1.65;;
3819;SDS011;1925;51.356;9.530;2023-02-28T10:01:12;5.68;;;1.60;;
3819;SDS011;1925;51.356;9.530;2023-02-28T10:03:45;2.65;;;1.90;;
3819;SDS011;1925;51.356;9.530;2023-02-28T10:06:14;3.45;;;2.42;;
3819;SDS011;1925;51.356;9.530;2023-02-28T10:08:52;2.97;;;1.67;;
3819;SDS011;1925;51.356;9.530;2023-02-28T10:11:21;3.22;;;1.88;;
3819;SDS011;1925;51.356;9.530;2023-02-28T10:16:32;3.85;;;2.08;;
3819;SDS011;1925;51.356;9.530;2023-02-28T10:19:05;2.08;;;1.80;;
3819;SDS011;1925;51.356;9.530;2023-02-28T10:21:36;2.20;;;1.92;;
3819;SDS011;1925;51.356;9.530;2023-02-28T10:24:12;3.38;;;1.90;;
3819;SDS011;1925;51.356;9.530;2023-02-28T10:26:40;2.10;;;1.80;;
3819;SDS011;1925;51.356;9.530;2023-02-28T10:29:08;4.50;;;2.47;;
3819;SDS011;1925;51.356;9.530;2023-02-28T10:31:35;3.25;;;2.05;;
3819;SDS011;1925;51.356;9.530;2023-02-28T10:34:01;4.93;;;2.40;;
3819;SDS011;1925;51.356;9.530;2023-02-28T10:36:29;3.17;;;2.08;;
3819;SDS011;1925;51.356;9.530;2023-02-28T10:38:55;3.75;;;2.33;;
3819;SDS011;1925;51.356;9.530;2023-02-28T10:41:28;5.60;;;2.30;;
3819;SDS011;1925;51.356;9.530;2023-02-28T10:44:13;2.33;;;2.13;;
3819;SDS011;1925;51.356;9.530;2023-02-28T10:46:39;3.45;;;2.45;;
3819;SDS011;1925;51.356;9.530;2023-02-28T10:49:11;3.35;;;2.72;;
3819;SDS011;1925;51.356;9.530;2023-02-28T10:51:39;3.42;;;2.50;;
3819;SDS011;1925;51.356;9.530;2023-02-28T10:54:06;5.43;;;2.53;;
3819;SDS011;1925;51.356;9.530;2023-02-28T10:56:40;2.20;;;2.00;;
3819;SDS011;1925;51.356;9.530;2023-02-28T11:01:42;4.57;;;2.72;;
3819;SDS011;1925;51.356;9.530;2023-02-28T11:04:16;4.15;;;2.20;;
3819;SDS011;1925;51.356;9.530;2023-02-28T11:06:43;2.67;;;2.20;;
3819;SDS011;1925;51.356;9.530;2023-02-28T11:09:16;3.17;;;2.20;;
3819;SDS011;1925;51.356;9.530;2023-02-28T11:11:44;4.32;;;2.47;;
3819;SDS011;1925;51.356;9.530;2023-02-28T11:14:17;4.15;;;2.20;;
3819;SDS011;1925;51.356;9.530;2023-02-28T11:16:44;3.75;;;2.25;;
3819;SDS011;1925;51.356;9.530;2023-02-28T11:19:16;2.27;;;2.07;;
3819;SDS011;1925;51.356;9.530;2023-02-28T11:21:45;3.53;;;2.35;;
3819;SDS011;1925;51.356;9.530;2023-02-28T11:26:41;2.90;;;2.60;;
3819;SDS011;1925;51.356;9.530;2023-02-28T11:29:12;3.78;;;2.95;;
3819;SDS011;1925;51.356;9.530;2023-02-28T11:31:41;2.60;;;2.40;;
3819;SDS011;1925;51.356;9.530;2023-02-28T11:34:41;3.50;;;2.90;;
3819;SDS011;1925;51.356;9.530;2023-02-28T11:37:00;2.10;;;1.88;;
3819;SDS011;1925;51.356;9.530;2023-02-28T11:39:29;1.90;;;1.75;;
3819;SDS011;1925;51.356;9.530;2023-02-28T11:42:04;2.58;;;2.30;;
3819;SDS011;1925;51.356;9.530;2023-02-28T11:47:17;3.38;;;2.65;;
3819;SDS011;1925;51.356;9.530;2023-02-28T11:49:48;2.40;;;2.20;;
3819;SDS011;1925;51.356;9.530;2023-02-28T11:54:58;2.72;;;1.95;;
3819;SDS011;1925;51.356;9.530;2023-02-28T11:57:30;5.22;;;2.85;;
3819;SDS011;1925;51.356;9.530;2023-02-28T12:02:28;2.45;;;2.10;;
3819;SDS011;1925;51.356;9.530;2023-02-28T12:05:12;3.10;;;2.80;;
3819;SDS011;1925;51.356;9.530;2023-02-28T12:12:47;2.75;;;2.55;;
3819;SDS011;1925;51.356;9.530;2023-02-28T12:18:05;3.45;;;2.92;;
3819;SDS011;1925;51.356;9.530;2023-02-28T12:20:40;3.53;;;2.83;;
3819;SDS011;1925;51.356;9.530;2023-02-28T12:28:23;6.25;;;3.10;;
3819;SDS011;1925;51.356;9.530;2023-02-28T12:30:52;4.05;;;2.80;;
3819;SDS011;1925;51.356;9.530;2023-02-28T12:33:20;3.75;;;3.38;;
3819;SDS011;1925;51.356;9.530;2023-02-28T12:35:49;2.75;;;2.42;;
3819;SDS011;1925;51.356;9.530;2023-02-28T12:38:19;6.05;;;3.17;;
3819;SDS011;1925;51.356;9.530;2023-02-28T12:40:59;4.00;;;2.80;;
3819;SDS011;1925;51.356;9.530;2023-02-28T12:43:34;4.65;;;2.38;;
3819;SDS011;1925;51.356;9.530;2023-02-28T12:48:57;3.10;;;2.80;;
3819;SDS011;1925;51.356;9.530;2023-02-28T12:51:24;3.70;;;2.20;;
3819;SDS011;1925;51.356;9.530;2023-02-28T12:59:16;3.47;;;2.38;;
3819;SDS011;1925;51.356;9.530;2023-02-28T13:01:51;2.97;;;2.42;;
3819;SDS011;1925;51.356;9.530;2023-02-28T13:07:05;2.85;;;2.65;;
3819;SDS011;1925;51.356;9.530;2023-02-28T13:09:33;3.90;;;2.83;;
3819;SDS011;1925;51.356;9.530;2023-02-28T13:11:59;2.75;;;2.55;;
3819;SDS011;1925;51.356;9.530;2023-02-28T13:14:37;3.23;;;2.93;;
3819;SDS011;1925;51.356;9.530;2023-02-28T13:19:40;6.70;;;3.97;;
3819;SDS011;1925;51.356;9.530;2023-02-28T13:22:15;3.58;;;3.20;;
3819;SDS011;1925;51.356;9.530;2023-02-28T13:24:43;2.80;;;2.50;;
3819;SDS011;1925;51.356;9.530;2023-02-28T13:27:11;4.43;;;3.45;;
3819;SDS011;1925;51.356;9.530;2023-02-28T13:29:49;3.90;;;3.20;;
3819;SDS011;1925;51.356;9.530;2023-02-28T13:32:28;4.15;;;3.60;;
3819;SDS011;1925;51.356;9.530;2023-02-28T13:39:50;3.97;;;3.00;;
3819;SDS011;1925;51.356;9.530;2023-02-28T13:47:32;4.30;;;3.90;;
3819;SDS011;1925;51.356;9.530;2023-02-28T13:52:46;4.00;;;3.60;;
3819;SDS011;1925;51.356;9.530;2023-02-28T13:55:18;3.53;;;2.83;;
3819;SDS011;1925;51.356;9.530;2023-02-28T14:02:50;6.60;;;3.55;;
3819;SDS011;1925;51.356;9.530;2023-02-28T14:05:22;3.88;;;3.40;;
3819;SDS011;1925;51.356;9.530;2023-02-28T14:07:54;4.75;;;2.90;;
3819;SDS011;1925;51.356;9.530;2023-02-28T14:10:31;3.78;;;3.30;;
3819;SDS011;1925;51.356;9.530;2023-02-28T14:13:11;5.22;;;4.07;;
3819;SDS011;1925;51.356;9.530;2023-02-28T14:15:42;4.03;;;3.15;;
3819;SDS011;1925;51.356;9.530;2023-02-28T14:18:26;3.95;;;3.55;;
3819;SDS011;1925;51.356;9.530;2023-02-28T14:20:58;3.88;;;3.00;;
3819;SDS011;1925;51.356;9.530;2023-02-28T14:31:07;3.97;;;3.58;;
3819;SDS011;1925;51.356;9.530;2023-02-28T14:33:45;4.20;;;3.33;;
3819;SDS011;1925;51.356;9.530;2023-02-28T14:36:17;5.20;;;4.28;;
3819;SDS011;1925;51.356;9.530;2023-02-28T14:38:49;3.80;;;3.50;;
3819;SDS011;1925;51.356;9.530;2023-02-28T14:41:21;3.88;;;3.40;;
3819;SDS011;1925;51.356;9.530;2023-02-28T14:43:48;4.75;;;3.50;;
3819;SDS011;1925;51.356;9.530;2023-02-28T14:46:15;3.85;;;3.55;;
3819;SDS011;1925;51.356;9.530;2023-02-28T14:48:41;5.70;;;4.05;;
3819;SDS011;1925;51.356;9.530;2023-02-28T14:51:10;5.95;;;3.75;;
3819;SDS011;1925;51.356;9.530;2023-02-28T14:53:36;4.07;;;3.50;;
3819;SDS011;1925;51.356;9.530;2023-02-28T14:56:03;5.30;;;4.20;;
3819;SDS011;1925;51.356;9.530;2023-02-28T14:58:30;4.28;;;3.88;;
3819;SDS011;1925;51.356;9.530;2023-02-28T15:00:57;6.97;;;4.25;;
3819;SDS011;1925;51.356;9.530;2023-02-28T15:03:35;5.43;;;3.55;;
3819;SDS011;1925;51.356;9.530;2023-02-28T15:06:03;4.28;;;3.85;;
3819;SDS011;1925;51.356;9.530;2023-02-28T15:08:30;5.93;;;3.40;;
3819;SDS011;1925;51.356;9.530;2023-02-28T15:11:12;3.38;;;3.08;;
3819;SDS011;1925;51.356;9.530;2023-02-28T15:13:40;3.58;;;3.22;;
3819;SDS011;1925;51.356;9.530;2023-02-28T15:16:11;3.80;;;3.50;;
3819;SDS011;1925;51.356;9.530;2023-02-28T15:21:31;4.22;;;3.88;;
3819;SDS011;1925;51.356;9.530;2023-02-28T15:26:32;5.20;;;4.30;;
3819;SDS011;1925;51.356;9.530;2023-02-28T15:29:00;4.15;;;3.72;;
3819;SDS011;1925;51.356;9.530;2023-02-28T15:31:27;3.97;;;3.47;;
3819;SDS011;1925;51.356;9.530;2023-02-28T15:33:57;5.70;;;4.20;;
3819;SDS011;1925;51.356;9.530;2023-02-28T15:36:25;4.32;;;3.60;;
3819;SDS011;1925;51.356;9.530;2023-02-28T15:38:52;4.40;;;4.00;;
3819;SDS011;1925;51.356;9.530;2023-02-28T15:41:25;8.93;;;4.85;;
3819;SDS011;1925;51.356;9.530;2023-02-28T15:44:34;6.22;;;4.68;;
3819;SDS011;1925;51.356;9.530;2023-02-28T15:46:50;5.18;;;4.20;;
3819;SDS011;1925;51.356;9.530;2023-02-28T15:49:19;6.20;;;4.30;;
3819;SDS011;1925;51.356;9.530;2023-02-28T15:51:46;4.38;;;3.75;;
3819;SDS011;1925;51.356;9.530;2023-02-28T15:54:21;3.75;;;3.20;;
3819;SDS011;1925;51.356;9.530;2023-02-28T15:56:50;4.57;;;3.70;;
3819;SDS011;1925;51.356;9.530;2023-02-28T15:59:21;6.38;;;4.00;;
3819;SDS011;1925;51.356;9.530;2023-02-28T16:02:01;4.38;;;3.97;;
3819;SDS011;1925;51.356;9.530;2023-02-28T16:04:27;6.35;;;3.60;;
3819;SDS011;1925;51.356;9.530;2023-02-28T16:09:25;4.35;;;3.95;;
3819;SDS011;1925;51.356;9.530;2023-02-28T16:11:53;5.50;;;3.85;;
3819;SDS011;1925;51.356;9.530;2023-02-28T16:14:24;4.30;;;3.30;;
3819;SDS011;1925;51.356;9.530;2023-02-28T16:16:53;7.60;;;4.00;;
3819;SDS011;1925;51.356;9.530;2023-02-28T16:19:19;4.60;;;3.50;;
3819;SDS011;1925;51.356;9.530;2023-02-28T16:21:45;5.47;;;4.00;;
3819;SDS011;1925;51.356;9.530;2023-02-28T16:24:11;3.80;;;3.45;;
3819;SDS011;1925;51.356;9.530;2023-02-28T16:26:38;4.87;;;4.40;;
3819;SDS011;1925;51.356;9.530;2023-02-28T16:29:05;6.25;;;4.47;;
3819;SDS011;1925;51.356;9.530;2023-02-28T16:31:35;5.55;;;4.10;;
3819;SDS011;1925;51.356;9.530;2023-02-28T16:34:02;4.70;;;3.25;;
3819;SDS011;1925;51.356;9.530;2023-02-28T16:36:28;4.65;;;3.97;;
3819;SDS011;1925;51.356;9.530;2023-02-28T16:38:54;5.07;;;3.90;;
3819;SDS011;1925;51.356;9.530;2023-02-28T16:41:21;6.05;;;4.55;;
3819;SDS011;1925;51.356;9.530;2023-02-28T16:43:48;5.88;;;4.63;;
3819;SDS011;1925;51.356;9.530;2023-02-28T16:46:15;4.22;;;3.83;;
3819;SDS011;1925;51.356;9.530;2023-02-28T16:48:42;6.00;;;5.35;;
3819;SDS011;1925;51.356;9.530;2023-02-28T16:51:12;5.53;;;4.80;;
3819;SDS011;1925;51.356;9.530;2023-02-28T16:53:39;5.30;;;4.03;;
3819;SDS011;1925;51.356;9.530;2023-02-28T16:56:05;4.80;;;4.30;;
3819;SDS011;1925;51.356;9.530;2023-02-28T16:58:31;5.10;;;4.35;;
3819;SDS011;1925;51.356;9.530;2023-02-28T17:01:00;8.13;;;4.60;;
3819;SDS011;1925;51.356;9.530;2023-02-28T17:03:27;5.30;;;4.50;;
3819;SDS011;1925;51.356;9.530;2023-02-28T17:05:53;6.78;;;4.57;;